Time;durP1;ratioP1;P1;durP2;ratioP2;P2;SDS_P1;SDS_P2;PMS_P1;PMS_P2;Temp;Humidity;BMP_temperature;BMP_pressure;BME280_temperature;BME280_humidity;BME280_pressure;Samples;Min_cycle;Max_cycle;Signal;HPM_P1;HPM_P2
2022/05/29 00:01:07;;;;;;;;;;;17.40;72.70;;;16.59;67.66;95956.22;4073395;34;20369;-82
2022/05/29 00:03:35;;;;;;;;;;;17.40;72.70;;;16.60;67.65;95957.81;4053706;34;20235;-82
2022/05/29 00:06:05;;;;;;;;;;;17.40;72.70;;;16.58;67.78;95955.38;4098191;34;19912;-82
2022/05/29 00:08:36;;;;;;;;;;;17.40;72.70;;;16.58;67.66;95960.91;4075833;34;19907;-82
2022/05/29 00:11:04;;;;;;;;;;;17.40;72.70;;;16.59;67.51;95961.75;4075703;34;20121;-82
2022/05/29 00:13:33;;;;;;;;;;;17.40;72.80;;;16.59;67.74;95956.22;4096627;34;20149;-82
2022/05/29 00:16:03;;;;;;;;;;;17.40;72.70;;;16.58;67.61;95960.91;4075922;34;19942;-82
2022/05/29 00:18:31;;;;;;;;;;;17.40;72.70;;;16.58;67.60;95958.16;4075542;34;19912;-82
2022/05/29 00:21:00;;;;;;;;;;;17.30;72.70;;;16.57;67.61;95964.81;4075755;34;20064;-82
2022/05/29 00:23:29;;;;;;;;;;;17.30;72.70;;;16.56;67.70;95966.75;4074972;34;19904;-82
2022/05/29 00:25:58;;;;;;;;;;;17.30;72.70;;;16.57;67.49;95967.56;4054072;34;20025;-82
2022/05/29 00:28:26;;;;;;;;;;;17.30;72.70;;;16.56;67.55;95972.28;4075421;34;20234;-82
2022/05/29 00:30:55;;;;;;;;;;;17.30;73.50;;;16.56;67.72;95980.59;4098110;34;19905;-82
2022/05/29 00:33:25;;;;;;;;;;;17.30;72.60;;;16.55;67.73;95973.41;4075201;34;19905;-82
2022/05/29 00:35:53;;;;;;;;;;;17.30;72.60;;;16.56;67.61;95979.75;4075669;34;20102;-82
2022/05/29 00:38:22;;;;;;;;;;;17.40;72.60;;;16.55;67.72;95973.41;4096922;34;19904;-82
2022/05/29 00:40:55;;;;;;;;;;;17.30;72.70;;;16.56;67.68;95968.69;4072823;28;20011;-88
2022/05/29 00:43:24;;;;;;;;;;;17.30;72.70;;;16.56;67.55;95966.75;4074533;34;20169;-89
2022/05/29 00:45:55;;;;;;;;;;;17.30;72.70;;;16.54;67.66;95960.72;4053111;34;19911;-88
2022/05/29 00:48:25;;;;;;;;;;;17.30;72.70;;;16.54;67.69;95952.44;4053357;34;19979;-88
2022/05/29 00:51:00;;;;;;;;;;;17.30;72.70;;;16.55;67.55;95944.94;4056012;34;20121;-89
2022/05/29 00:53:30;;;;;;;;;;;17.30;72.70;;;16.54;67.68;95940.56;4048573;34;19905;-88
2022/05/29 00:56:06;;;;;;;;;;;17.30;72.70;;;16.54;67.56;95944.16;4027635;34;19905;-88
2022/05/29 00:58:34;;;;;;;;;;;17.30;72.70;;;16.54;67.54;95949.69;4027632;34;19905;-88
2022/05/29 01:01:03;;;;;;;;;;;17.30;72.60;;;16.54;67.52;95937.78;4027425;34;20073;-89
2022/05/29 01:03:33;;;;;;;;;;;17.30;72.70;;;16.52;67.53;95929.84;4026900;34;20178;-88
2022/05/29 01:06:02;;;;;;;;;;;17.30;72.70;;;16.52;67.59;95940.09;4027595;34;20000;-89
2022/05/29 01:08:33;;;;;;;;;;;17.30;72.70;;;16.52;67.47;95951.94;4049074;34;20219;-87
2022/05/29 01:11:19;;;;;;;;;;;17.30;72.70;;;16.51;67.43;95944.78;4027538;34;20115;-89
2022/05/29 01:14:00;;;;;;;;;;;17.30;72.70;;;16.51;67.57;95939.25;4048717;34;19982;-89
2022/05/29 01:16:38;;;;;;;;;;;17.30;72.70;;;16.52;67.71;95945.59;4048627;34;19905;-88
2022/05/29 01:19:37;;;;;;;;;;;17.30;72.70;;;16.50;67.58;95940.38;4027423;34;19907;-89
2022/05/29 01:22:20;;;;;;;;;;;17.30;72.70;;;16.50;67.67;95948.66;4044752;34;19943;-89
2022/05/29 01:25:40;;;;;;;;;;;17.30;72.70;;;16.51;67.56;95950.31;4027221;34;19912;-89
2022/05/29 01:28:13;;;;;;;;;;;17.30;72.70;;;16.51;67.63;95944.78;4048943;34;19911;-89
2022/05/29 01:30:45;;;;;;;;;;;17.30;72.70;;;16.51;67.39;95944.78;4027434;34;20423;-88
2022/05/29 01:37:06;;;;;;;;;;;17.30;72.70;;;16.51;67.74;95957.78;4026864;34;20130;-89
2022/05/29 01:39:37;;;;;;;;;;;17.30;72.70;;;16.51;67.69;95947.53;4027112;34;19905;-89
2022/05/29 01:42:08;;;;;;;;;;;17.30;72.70;;;16.50;67.67;95932.09;4026793;34;19912;-88
2022/05/29 01:44:42;;;;;;;;;;;17.30;72.70;;;16.50;67.59;95925.75;4027096;34;19905;-89
2022/05/29 01:47:16;;;;;;;;;;;17.30;72.70;;;16.50;67.58;95932.09;4071493;34;20331;-89
2022/05/29 01:49:58;;;;;;;;;;;17.30;72.70;;;16.49;67.70;95941.50;4027116;34;19920;-89
2022/05/29 01:52:45;;;;;;;;;;;17.30;72.70;;;16.48;67.57;95945.41;4008261;35;19991;-89
2022/05/29 01:55:18;;;;;;;;;;;17.30;72.80;;;16.49;67.57;95944.28;4001830;35;20114;-89
2022/05/29 01:57:50;;;;;;;;;;;17.30;72.70;;;16.49;67.71;95949.00;4023204;35;20370;-90
2022/05/29 02:00:21;;;;;;;;;;;17.30;72.70;;;16.49;68.00;95940.72;4023069;35;20236;-89
2022/05/29 02:02:53;;;;;;;;;;;17.30;72.70;;;16.47;67.61;95932.72;4022641;35;20042;-89
2022/05/29 02:08:45;;;;;;;;;;;17.30;72.80;;;16.48;67.79;95939.88;4022984;35;19913;-89
2022/05/29 02:11:17;;;;;;;;;;;17.30;72.80;;;16.49;67.87;95940.72;4023030;35;19906;-90
2022/05/29 02:13:49;;;;;;;;;;;17.30;72.80;;;16.48;67.48;95942.63;4001368;35;19921;-91
2022/05/29 02:16:21;;;;;;;;;;;17.30;72.70;;;16.48;67.68;95944.59;4001893;35;20107;-90
2022/05/29 02:18:52;;;;;;;;;;;17.30;72.70;;;16.47;67.55;95938.25;4001953;35;20004;-89
2022/05/29 02:21:23;;;;;;;;;;;17.20;72.50;;;16.45;67.60;95940.53;4022754;35;20307;-90
2022/05/29 02:23:54;;;;;;;;;;;17.20;72.50;;;16.47;67.63;95945.72;4001822;35;19913;-89
2022/05/29 02:26:25;;;;;;;;;;;17.20;72.50;;;16.47;67.65;95948.50;4001920;35;19912;-88
2022/05/29 02:28:56;;;;;;;;;;;17.20;72.60;;;16.47;67.52;95931.91;4027107;34;19905;-90
2022/05/29 02:31:35;;;;;;;;;;;17.20;72.60;;;16.46;67.66;95939.38;4029119;34;20020;-90
2022/05/29 02:34:06;;;;;;;;;;;17.20;72.50;;;16.44;67.88;95938.06;4029788;34;20125;-89
2022/05/29 02:36:39;;;;;;;;;;;17.20;72.60;;;16.43;67.57;95948.31;4051226;34;20037;-89
2022/05/29 02:39:25;;;;;;;;;;;17.20;72.50;;;16.46;67.66;95947.66;4029491;34;19905;-90
2022/05/29 02:42:07;;;;;;;;;;;17.20;72.50;;;16.45;67.60;95950.75;4027916;34;19917;-89
2022/05/29 02:44:43;;;;;;;;;;;17.20;72.50;;;16.43;67.53;95942.78;4028648;34;19912;-89
2022/05/29 02:47:26;;;;;;;;;;;17.20;72.60;;;16.44;67.58;95949.94;4050980;34;19912;-90
2022/05/29 02:50:14;;;;;;;;;;;17.20;72.50;;;16.45;67.49;95939.69;4050967;34;20030;-90
2022/05/29 02:52:42;;;;;;;;;;;17.20;72.50;;;16.44;67.66;95938.91;4050687;34;20187;-89
2022/05/29 02:55:11;;;;;;;;;;;17.20;72.70;;;16.45;67.32;95950.75;4029310;34;19909;-89
2022/05/29 02:57:40;;;;;;;;;;;17.20;72.60;;;16.44;67.63;95947.19;4029292;34;20220;-89
2022/05/29 03:00:12;;;;;;;;;;;17.20;72.60;;;16.43;67.65;95942.78;4029340;34;19912;-89
2022/05/29 03:03:06;;;;;;;;;;;17.20;72.50;;;16.42;67.75;95932.88;4029226;34;19999;-90
2022/05/29 03:05:38;;;;;;;;;;;17.20;72.60;;;16.42;67.18;95930.09;4050812;34;19912;-90
2022/05/29 03:08:41;;;;;;;;;;;17.20;72.50;;;16.42;67.52;95930.09;4029318;34;19905;-90
2022/05/29 03:11:13;;;;;;;;;;;17.20;72.50;;;16.41;67.88;95934.00;4029235;34;20148;-90
2022/05/29 03:13:55;;;;;;;;;;;17.20;72.50;;;16.41;67.58;95931.22;4029016;34;20400;-90
2022/05/29 03:16:34;;;;;;;;;;;17.20;72.60;;;16.40;67.56;95921.31;4050842;34;19941;-90
2022/05/29 03:19:16;;;;;;;;;;;17.20;72.50;;;16.41;67.44;95922.94;4029417;34;20264;-90
2022/05/29 03:21:50;;;;;;;;;;;17.20;72.50;;;16.40;67.76;95905.53;4028713;34;20166;-90
2022/05/29 03:24:23;;;;;;;;;;;17.20;72.50;;;16.41;67.48;95914.66;4029064;34;20255;-90
2022/05/29 03:26:59;;;;;;;;;;;17.20;72.50;;;16.39;67.45;95911.38;4029069;34;20243;-90
2022/05/29 03:29:31;;;;;;;;;;;17.20;72.50;;;16.40;67.43;95911.06;4050595;34;20015;-90
2022/05/29 03:32:00;;;;;;;;;;;17.20;72.50;;;16.41;67.59;95901.63;4028791;34;19905;-90
2022/05/29 03:34:30;;;;;;;;;;;17.20;72.50;;;16.41;67.29;95895.31;4010060;35;19905;-90
2022/05/29 03:36:59;;;;;;;;;;;17.20;72.50;;;16.42;67.48;95902.47;4047069;35;20025;-90
2022/05/29 03:39:27;;;;;;;;;;;17.20;72.50;;;16.42;67.50;95899.72;4002978;35;19988;-90
2022/05/29 03:41:56;;;;;;;;;;;17.20;72.40;;;16.42;67.49;95894.19;4003207;35;19906;-89
2022/05/29 03:44:25;;;;;;;;;;;17.20;72.50;;;16.43;67.43;95904.09;4003379;35;20166;-89
2022/05/29 03:46:53;;;;;;;;;;;17.20;72.40;;;16.43;67.26;95904.09;4024205;35;20153;-89
2022/05/29 03:50:05;;;;;;;;;;;17.20;72.30;;;16.40;67.54;95904.72;4024069;35;20152;-90
2022/05/29 03:52:34;;;;;;;;;;;17.20;72.50;;;16.44;67.34;95908.50;4005733;35;19906;-90
2022/05/29 03:55:03;;;;;;;;;;;17.20;72.40;;;16.44;67.08;95911.25;4003450;35;19905;-90
2022/05/29 03:57:32;;;;;;;;;;;17.20;72.40;;;16.45;67.20;95912.91;4024648;35;20217;-90
2022/05/29 04:00:00;;;;;;;;;;;17.20;72.30;;;16.45;67.32;95912.91;4003462;35;19970;-90
2022/05/29 04:02:29;;;;;;;;;;;17.20;72.30;;;16.42;67.35;95910.75;4003021;35;19913;-90
2022/05/29 04:04:57;;;;;;;;;;;17.20;72.40;;;16.44;67.29;95914.03;4024679;35;19912;-90
2022/05/29 04:12:53;;;;;;;;;;;17.30;72.30;;;16.48;67.28;95928.03;3982068;34;20141;-89
2022/05/29 04:15:22;;;;;;;;;;;17.30;72.50;;;16.45;67.42;95918.44;4028778;34;19912;-90
2022/05/29 04:23:11;;;;;;;;;;;17.30;72.60;;;16.46;67.58;95914.50;3919207;36;20383;-90
2022/05/29 04:25:39;;;;;;;;;;;17.30;72.50;;;16.48;67.64;95922.50;3928118;34;19905;-90
2022/05/29 04:28:08;;;;;;;;;;;17.30;72.60;;;16.48;67.11;95925.25;4028642;34;19912;-91
2022/05/29 04:30:36;;;;;;;;;;;17.30;72.60;;;16.47;67.60;95921.66;4028807;34;20026;-91
2022/05/29 04:33:05;;;;;;;;;;;17.30;72.70;;;16.48;67.53;95920.53;4049738;34;19904;-90
2022/05/29 04:35:38;;;;;;;;;;;17.30;72.70;;;16.49;67.50;95918.59;4028574;34;20173;-91
2022/05/29 04:38:08;;;;;;;;;;;17.30;72.60;;;16.48;67.54;95905.91;4028482;34;19969;-91
2022/05/29 04:40:37;;;;;;;;;;;17.30;72.60;;;16.50;67.68;95915.50;4049865;34;19905;-91
2022/05/29 04:43:06;;;;;;;;;;;17.30;72.60;;;16.51;67.73;95914.38;4028317;34;19905;-90
2022/05/29 04:45:34;;;;;;;;;;;17.30;72.80;;;16.52;67.72;95902.19;4028500;34;20154;-91
2022/05/29 04:48:03;;;;;;;;;;;17.30;72.80;;;16.55;67.71;95911.78;4012366;35;19928;-90
2022/05/29 04:50:32;;;;;;;;;;;17.30;72.80;;;16.58;67.98;95910.38;4002974;35;20015;-91
2022/05/29 04:53:01;;;;;;;;;;;17.40;72.80;;;16.61;67.84;95915.25;4001999;35;19912;-89
2022/05/29 04:55:30;;;;;;;;;;;17.40;72.70;;;16.62;67.56;95919.63;4024652;35;20088;-91
2022/05/29 04:57:59;;;;;;;;;;;17.40;72.80;;;16.65;67.84;95922.56;4002913;35;19906;-90
2022/05/29 05:00:28;;;;;;;;;;;17.40;72.70;;;16.67;67.75;95916.75;4024230;35;19913;-91
2022/05/29 05:02:56;;;;;;;;;;;17.50;72.70;;;16.69;67.66;95914.50;4023665;35;19966;-90
2022/05/29 05:05:25;;;;;;;;;;;17.50;72.60;;;16.69;67.51;95906.19;4002886;35;20030;-91
2022/05/29 05:07:54;;;;;;;;;;;17.50;72.40;;;16.72;67.54;95900.00;4002843;35;20263;-91
2022/05/29 05:10:23;;;;;;;;;;;17.50;72.40;;;16.72;67.60;95894.47;4023934;35;19912;-91
2022/05/29 05:12:53;;;;;;;;;;;17.50;72.50;;;16.77;67.53;95908.19;4023714;35;19912;-91
2022/05/29 05:15:22;;;;;;;;;;;17.60;72.40;;;16.77;67.45;95910.13;4023980;35;19905;-91
2022/05/29 05:17:51;;;;;;;;;;;17.60;72.30;;;16.80;67.51;95907.53;4024005;35;19909;-91
2022/05/29 05:20:19;;;;;;;;;;;17.60;72.30;;;16.81;67.54;95909.19;4023976;35;19912;-91
2022/05/29 05:22:48;;;;;;;;;;;17.60;72.20;;;16.80;67.32;95912.25;4023569;35;19972;-91
2022/05/29 05:25:17;;;;;;;;;;;17.60;72.30;;;16.82;67.27;95916.34;4023891;35;20173;-91
2022/05/29 05:27:46;;;;;;;;;;;17.60;72.20;;;16.82;67.47;95912.75;4002605;35;20121;-91
2022/05/29 05:30:16;;;;;;;;;;;17.60;72.30;;;16.82;67.36;95913.56;4051897;34;20112;-91
2022/05/29 05:32:44;;;;;;;;;;;17.60;72.10;;;16.83;67.47;95909.69;4049177;34;19905;-90
2022/05/29 05:35:13;;;;;;;;;;;17.60;72.10;;;16.83;67.34;95904.16;4028058;34;20174;-91
2022/05/29 05:37:42;;;;;;;;;;;17.60;72.10;;;16.84;66.89;95916.84;4028047;34;20140;-90
2022/05/29 05:40:13;;;;;;;;;;;17.60;71.80;;;16.86;67.03;95922.03;4027953;34;20128;-90
2022/05/29 05:42:42;;;;;;;;;;;17.70;71.90;;;16.90;67.01;95923.06;4027401;34;20271;-90
2022/05/29 05:45:18;;;;;;;;;;;17.70;72.00;;;16.91;67.19;95913.59;4027869;34;19905;-90
2022/05/29 05:47:47;;;;;;;;;;;17.70;71.90;;;16.93;66.98;95908.56;4027762;34;19905;-90
2022/05/29 05:50:23;;;;;;;;;;;17.70;71.90;;;16.95;66.86;95902.75;4361181;29;19908;-89
2022/05/29 05:56:22;;;;;;;;;;;17.80;71.70;;;17.03;66.70;95888.16;4099908;34;19904;-88
2022/05/29 05:58:56;;;;;;;;;;;17.80;71.30;;;17.06;66.58;95873.69;4101509;34;20241;-88
2022/05/29 06:01:35;;;;;;;;;;;17.90;71.30;;;17.08;66.61;95862.28;4097181;34;19911;-90
2022/05/29 06:04:05;;;;;;;;;;;17.90;71.20;;;17.14;66.22;95872.88;4127969;34;20027;-88
2022/05/29 06:06:33;;;;;;;;;;;17.90;71.20;;;17.17;66.04;95875.00;4150683;34;19904;-89
2022/05/29 06:09:14;;;;;;;;;;;18.00;70.90;;;17.17;65.83;95865.88;4105908;34;19904;-89
2022/05/29 06:11:52;;;;;;;;;;;18.00;70.60;;;17.21;65.81;95866.06;4105298;34;19904;-88
2022/05/29 06:14:48;;;;;;;;;;;18.00;70.60;;;17.22;65.81;95862.97;4127781;34;20044;-89
2022/05/29 06:17:21;;;;;;;;;;;18.00;70.50;;;17.23;65.96;95864.59;4105453;34;20157;-87
2022/05/29 06:20:15;;;;;;;;;;;18.00;70.40;;;17.25;65.78;95875.34;4105039;34;20262;-89
2022/05/29 06:22:44;;;;;;;;;;;18.00;70.50;;;17.25;65.94;95867.03;4105290;34;19904;-88
2022/05/29 06:25:14;;;;;;;;;;;18.10;70.70;;;17.25;65.90;95873.41;4127623;34;19914;-87
2022/05/29 06:27:44;;;;;;;;;;;18.00;70.60;;;17.25;66.08;95870.63;4127369;34;19912;-88
2022/05/29 06:30:14;;;;;;;;;;;18.10;70.70;;;17.26;65.96;95872.28;4104939;34;19903;-87
2022/05/29 06:32:45;;;;;;;;;;;18.10;70.60;;;17.26;66.15;95868.69;4096041;34;19904;-88
2022/05/29 06:35:15;;;;;;;;;;;18.10;70.70;;;17.28;66.08;95866.41;4078907;34;20156;-88
2022/05/29 06:37:44;;;;;;;;;;;18.10;70.60;;;17.29;65.77;95863.34;4086944;34;19918;-87
2022/05/29 06:40:14;;;;;;;;;;;18.10;70.50;;;17.29;65.71;95860.56;4126969;34;19903;-87
2022/05/29 06:42:43;;;;;;;;;;;18.10;70.50;;;17.26;65.84;95849.31;4105329;34;19904;-87
2022/05/29 06:45:12;;;;;;;;;;;18.10;70.70;;;17.24;66.02;95843.28;4104776;34;19904;-88
2022/05/29 06:47:41;;;;;;;;;;;18.10;70.60;;;17.30;65.92;95853.06;4104839;34;20145;-88
2022/05/29 06:50:11;;;;;;;;;;;18.10;70.50;;;17.32;65.79;95845.25;4126929;34;19903;-88
2022/05/29 06:52:40;;;;;;;;;;;18.10;70.30;;;17.36;65.89;95853.72;4127315;34;20345;-88
2022/05/29 06:55:10;;;;;;;;;;;18.10;70.20;;;17.37;65.41;95853.41;4104923;34;20237;-87
2022/05/29 06:57:40;;;;;;;;;;;18.20;70.10;;;17.38;65.28;95849.50;4100978;34;20249;-88
2022/05/29 07:08:51;;;;;;;;;;;18.10;70.30;;;17.33;65.62;95846.91;4100411;34;19911;-88
2022/05/29 07:11:30;;;;;;;;;;;18.10;70.20;;;17.33;65.54;95855.19;4099832;34;19904;-88
2022/05/29 07:14:14;;;;;;;;;;;18.10;70.50;;;17.31;65.34;95849.97;4100405;34;19908;-88
2022/05/29 07:16:51;;;;;;;;;;;18.10;70.70;;;17.32;65.73;95846.06;4102622;34;19985;-88
2022/05/29 07:19:28;;;;;;;;;;;18.10;70.60;;;17.30;65.66;95842.00;4102754;34;19904;-88
2022/05/29 07:22:13;;;;;;;;;;;18.10;70.40;;;17.26;65.83;95852.06;4124598;34;20012;-88
2022/05/29 07:24:43;;;;;;;;;;;18.10;70.60;;;17.27;65.73;95850.94;4125095;34;19968;-88
2022/05/29 07:27:12;;;;;;;;;;;18.10;70.50;;;17.27;65.73;95845.41;4102678;34;20172;-88
2022/05/29 07:29:40;;;;;;;;;;;18.10;70.30;;;17.24;65.60;95840.50;4080736;34;19904;-88
2022/05/29 07:32:09;;;;;;;;;;;18.00;70.40;;;17.26;65.78;95857.63;4080326;34;19904;-88
2022/05/29 07:34:38;;;;;;;;;;;18.00;70.40;;;17.24;65.76;95848.81;4102739;34;19910;-88
2022/05/29 07:37:10;;;;;;;;;;;18.00;70.60;;;17.23;65.82;95863.81;4102381;34;20070;-88
2022/05/29 07:39:40;;;;;;;;;;;18.00;70.40;;;17.21;65.78;95857.78;4080564;34;20019;-88
2022/05/29 07:44:55;;;;;;;;;;;18.00;70.50;;;17.18;65.91;95860.06;4102610;34;19913;-87
2022/05/29 07:47:27;;;;;;;;;;;18.00;70.60;;;17.20;65.87;95858.91;4080585;34;19911;-88
2022/05/29 07:49:57;;;;;;;;;;;18.00;70.70;;;17.20;65.99;95869.97;4080217;34;19904;-88
2022/05/29 07:52:27;;;;;;;;;;;18.00;70.70;;;17.20;66.04;95858.91;4102255;34;19904;-88
2022/05/29 07:54:56;;;;;;;;;;;18.00;70.70;;;17.18;66.07;95857.28;4102577;34;20093;-88
2022/05/29 07:57:25;;;;;;;;;;;18.00;70.80;;;17.20;65.87;95862.47;4080315;34;20176;-88
2022/05/29 07:59:54;;;;;;;;;;;18.00;70.70;;;17.20;65.99;95858.91;4102244;34;20073;-89
2022/05/29 08:05:56;;;;;;;;;;;18.00;70.80;;;17.22;65.86;95848.34;4102372;34;19904;-88
2022/05/29 08:08:47;;;;;;;;;;;18.00;70.70;;;17.20;65.99;95845.88;4101554;34;19955;-88
2022/05/29 08:11:19;;;;;;;;;;;18.00;71.50;;;17.24;65.69;95840.50;4051672;34;20055;-88
2022/05/29 08:13:47;;;;;;;;;;;18.00;70.50;;;17.26;65.50;95841.00;4080165;34;20613;-88
2022/05/29 08:16:30;;;;;;;;;;;18.00;70.30;;;17.28;65.43;95838.75;4080312;34;20128;-89
2022/05/29 08:19:51;;;;;;;;;;;18.00;70.20;;;17.34;65.45;95848.53;4080036;34;20036;-88
2022/05/29 08:23:31;;;;;;;;;;;18.10;70.20;;;17.33;65.33;95841.38;4097174;34;20041;-89
2022/05/29 08:31:50;;;;;;;;;;;18.20;70.40;;;17.40;65.28;95840.88;4101355;34;20213;-86
2022/05/29 08:34:18;;;;;;;;;;;18.20;69.90;;;17.41;65.31;95842.50;4102046;34;19905;-87
2022/05/29 08:36:47;;;;;;;;;;;18.20;69.80;;;17.41;65.26;95850.81;4079840;34;20219;-87
2022/05/29 08:39:16;;;;;;;;;;;18.20;69.80;;;17.41;65.17;95854.38;4101798;34;19934;-87
2022/05/29 08:41:48;;;;;;;;;;;18.20;69.90;;;17.41;64.90;95857.16;4101193;34;20103;-87
2022/05/29 08:44:18;;;;;;;;;;;18.20;69.80;;;17.40;65.27;95850.00;4079732;34;19912;-88
2022/05/29 08:46:52;;;;;;;;;;;18.20;69.90;;;17.40;65.55;95841.69;4124137;34;19904;-87
2022/05/29 08:49:22;;;;;;;;;;;18.20;69.90;;;17.38;65.13;95843.97;4081873;34;19904;-88
2022/05/29 08:52:06;;;;;;;;;;;18.20;69.90;;;17.39;65.32;95856.66;4105566;34;19911;-88
2022/05/29 08:54:52;;;;;;;;;;;18.20;70.00;;;17.37;65.36;95842.31;4106321;34;20082;-88
2022/05/29 08:57:55;;;;;;;;;;;18.20;69.90;;;17.39;65.51;95842.81;4105999;34;20371;-88
2022/05/29 09:00:31;;;;;;;;;;;18.20;69.90;;;17.39;65.27;95856.66;4092824;34;20185;-87
2022/05/29 09:03:14;;;;;;;;;;;18.20;69.90;;;17.40;65.22;95861.06;4105928;34;19904;-88
2022/05/29 09:05:44;;;;;;;;;;;18.20;69.80;;;17.40;65.32;95847.22;4128416;34;19998;-87
2022/05/29 09:08:20;;;;;;;;;;;18.20;69.80;;;17.43;65.40;95846.59;4105838;34;20484;-88
2022/05/29 09:10:51;;;;;;;;;;;18.20;69.90;;;17.43;65.25;95846.59;4105514;34;20210;-88
2022/05/29 09:13:27;;;;;;;;;;;18.20;69.90;;;17.41;65.18;95843.31;4105906;34;19904;-88
2022/05/29 09:15:59;;;;;;;;;;;18.20;69.90;;;17.42;65.47;95850.47;4128185;34;19911;-87
2022/05/29 09:18:36;;;;;;;;;;;18.20;69.90;;;17.41;65.39;95851.63;4105832;34;19904;-88
2022/05/29 09:21:06;;;;;;;;;;;18.20;70.10;;;17.36;65.57;95851.78;4127823;34;19904;-88
2022/05/29 09:23:58;;;;;;;;;;;18.20;70.00;;;17.34;65.74;95859.59;4105791;34;20215;-87
2022/05/29 09:26:38;;;;;;;;;;;18.20;70.20;;;17.30;65.68;95869.66;4105970;34;19904;-88
2022/05/29 09:29:36;;;;;;;;;;;18.10;70.40;;;17.26;65.68;95869.50;4105576;34;20009;-87
2022/05/29 09:32:05;;;;;;;;;;;18.10;70.50;;;17.24;65.79;95876.47;4105415;34;20207;-89
2022/05/29 09:34:37;;;;;;;;;;;18.00;70.40;;;17.23;65.90;95880.41;4105586;34;20042;-89
2022/05/29 09:37:14;;;;;;;;;;;18.00;70.50;;;17.21;65.93;95877.16;4081617;34;19904;-88
2022/05/29 09:39:56;;;;;;;;;;;18.00;70.60;;;17.16;66.26;95870.63;4079326;34;19911;-89
2022/05/29 09:42:27;;;;;;;;;;;18.00;70.80;;;17.12;66.17;95877.13;4101137;34;19904;-89
2022/05/29 09:45:15;;;;;;;;;;;17.90;70.90;;;17.11;66.21;95887.34;4101085;34;20154;-89
2022/05/29 09:50:46;;;;;;;;;;;17.90;71.10;;;17.06;66.30;95898.56;4100469;34;20234;-89
2022/05/29 09:53:30;;;;;;;;;;;17.80;71.10;;;17.04;66.41;95917.44;4100867;34;19904;-89
2022/05/29 09:56:02;;;;;;;;;;;17.80;71.20;;;17.02;66.47;95908.63;4076455;34;19965;-89
2022/05/29 09:58:42;;;;;;;;;;;17.80;71.20;;;17.00;66.53;95916.44;4101024;34;19911;-88
2022/05/29 10:01:12;;;;;;;;;;;17.80;72.10;;;16.96;66.61;95913.50;4123618;34;20169;-88
2022/05/29 10:08:35;;;;;;;;;;;17.80;71.40;;;16.93;66.65;95916.06;4016114;34;19905;-89
2022/05/29 10:11:19;;;;;;;;;;;17.70;71.60;;;16.90;66.97;95908.41;4100120;34;20329;-89
2022/05/29 10:13:51;;;;;;;;;;;17.70;71.60;;;16.91;66.64;95896.19;4100522;34;20487;-89
2022/05/29 10:16:33;;;;;;;;;;;17.70;71.60;;;16.90;67.01;95872.44;4100485;34;19962;-89
2022/05/29 10:19:02;;;;;;;;;;;17.70;71.80;;;16.88;67.07;95859.75;4078281;34;20168;-89
2022/05/29 10:21:43;;;;;;;;;;;17.60;71.80;;;16.87;66.89;95852.59;4078687;34;23198;-88
2022/05/29 10:24:14;;;;;;;;;;;17.60;71.70;;;16.87;66.96;95852.59;4078570;34;19904;-88
2022/05/29 10:26:48;;;;;;;;;;;17.60;71.70;;;16.86;66.91;95839.91;4124051;34;19988;-89
2022/05/29 10:29:20;;;;;;;;;;;17.60;71.70;;;16.86;66.60;95828.03;4078314;34;19908;-88
2022/05/29 10:31:54;;;;;;;;;;;17.60;71.60;;;16.85;66.84;95815.34;4122447;34;19904;-88
2022/05/29 10:34:26;;;;;;;;;;;17.70;71.80;;;16.85;66.92;95838.28;4100606;34;20002;-88
2022/05/29 10:36:56;;;;;;;;;;;17.60;71.80;;;16.81;66.79;95884.31;4122826;34;19904;-89
2022/05/29 10:39:28;;;;;;;;;;;17.60;72.00;;;16.83;66.96;95898.63;4078659;34;20071;-89
2022/05/29 10:41:58;;;;;;;;;;;17.60;72.10;;;16.86;67.08;95880.56;4077994;34;19911;-89
2022/05/29 10:44:43;;;;;;;;;;;17.60;72.00;;;16.85;66.81;95865.13;4078482;34;20381;-89
2022/05/29 10:47:26;;;;;;;;;;;17.60;71.80;;;16.85;67.03;95849.34;4078657;34;19916;-89
2022/05/29 10:50:14;;;;;;;;;;;17.60;72.00;;;16.85;66.90;95854.06;4078648;34;19911;-88
2022/05/29 10:52:52;;;;;;;;;;;17.60;71.80;;;16.84;67.24;95861.56;4102962;34;20033;-87
2022/05/29 10:55:38;;;;;;;;;;;17.60;72.00;;;16.81;67.33;95870.47;4080866;34;20061;-88
2022/05/29 10:58:48;;;;;;;;;;;17.60;72.10;;;16.81;67.14;95853.06;4081349;34;20131;-88
2022/05/29 11:04:49;;;;;;;;;;;17.60;72.00;;;16.82;67.28;95819.59;4080100;34;19911;-88
2022/05/29 11:07:35;;;;;;;;;;;17.60;72.10;;;16.78;67.09;95796.47;4080722;34;19997;-87
2022/05/29 11:10:16;;;;;;;;;;;17.60;72.00;;;16.81;67.13;95817.13;4079673;34;20048;-87
2022/05/29 11:13:00;;;;;;;;;;;17.60;72.10;;;16.81;67.35;95826.25;4080671;34;20017;-87
2022/05/29 11:15:34;;;;;;;;;;;17.60;72.10;;;16.79;67.18;95822.97;4080809;34;19904;-88
2022/05/29 11:18:35;;;;;;;;;;;17.60;72.10;;;16.80;67.29;95830.16;4091898;34;19911;-88
2022/05/29 11:21:10;;;;;;;;;;;17.60;72.30;;;16.79;67.48;95813.84;4073615;34;19904;-88
2022/05/29 11:23:57;;;;;;;;;;;17.60;72.20;;;16.77;67.30;95802.34;4080338;34;20161;-87
2022/05/29 11:26:43;;;;;;;;;;;17.60;72.30;;;16.79;67.39;95817.47;4079473;34;20264;-88
2022/05/29 11:29:46;;;;;;;;;;;17.60;72.30;;;16.79;67.52;95806.41;4102366;34;20172;-87
2022/05/29 11:32:50;;;;;;;;;;;17.60;72.30;;;16.79;67.39;95798.09;4100416;34;19911;-88
2022/05/29 11:35:28;;;;;;;;;;;17.60;72.30;;;16.80;67.42;95799.75;4065249;34;20108;-88
2022/05/29 11:38:31;;;;;;;;;;;17.60;73.10;;;16.78;67.27;95785.41;4091636;34;19922;-87
2022/05/29 11:41:06;;;;;;;;;;;17.60;72.30;;;16.78;67.21;95782.66;4106960;34;20069;-88
2022/05/29 11:43:39;;;;;;;;;;;17.60;72.30;;;16.80;67.34;95777.63;4107288;34;19903;-88
2022/05/29 11:52:05;;;;;;;;;;;17.60;72.40;;;16.81;67.31;95787.53;4106711;34;19922;-89
2022/05/29 11:54:55;;;;;;;;;;;17.60;72.40;;;16.81;67.42;95776.50;4107648;34;20005;-89
2022/05/29 11:57:28;;;;;;;;;;;17.60;72.40;;;16.81;67.43;95776.50;4107057;34;19909;-89
2022/05/29 12:00:08;;;;;;;;;;;17.60;72.30;;;16.80;67.28;95780.38;4106570;34;19904;-89
2022/05/29 12:02:44;;;;;;;;;;;17.60;72.30;;;16.81;67.45;95783.94;4106785;34;20215;-89
2022/05/29 12:05:29;;;;;;;;;;;17.60;72.30;;;16.81;67.51;95787.53;4107097;34;20122;-89
2022/05/29 12:08:08;;;;;;;;;;;17.60;72.30;;;16.82;67.32;95791.94;4106781;34;19904;-89
2022/05/29 12:11:08;;;;;;;;;;;17.60;72.20;;;16.83;67.36;95799.09;4128751;34;19908;-87
2022/05/29 12:14:02;;;;;;;;;;;17.60;72.30;;;16.83;67.39;95792.75;4129336;34;19908;-89
2022/05/29 12:16:51;;;;;;;;;;;17.60;72.30;;;16.84;67.45;95795.22;4106945;34;19904;-89
2022/05/29 12:19:28;;;;;;;;;;;17.60;72.40;;;16.83;67.46;95782.50;4128963;34;20102;-88
2022/05/29 12:22:30;;;;;;;;;;;17.60;72.40;;;16.83;67.43;95782.50;4128602;34;19903;-89
2022/05/29 12:25:12;;;;;;;;;;;17.60;72.40;;;16.84;67.38;95769.50;4106598;34;19904;-89
2022/05/29 12:27:53;;;;;;;;;;;17.60;72.30;;;16.87;67.48;95763.31;4108069;34;20135;-87
2022/05/29 12:30:28;;;;;;;;;;;17.60;72.30;;;16.87;67.34;95750.31;4106161;34;19903;-87
2022/05/29 12:32:57;;;;;;;;;;;17.60;72.30;;;16.90;67.18;95748.03;4106928;34;20107;-87
2022/05/29 12:35:28;;;;;;;;;;;17.70;72.30;;;16.91;67.28;95753.22;4128973;34;20287;-87
2022/05/29 12:38:25;;;;;;;;;;;17.70;72.20;;;16.93;67.31;95761.22;4152657;34;20078;-87
2022/05/29 12:41:05;;;;;;;;;;;17.70;72.10;;;16.94;67.03;95763.69;4078891;34;20322;-87
2022/05/29 12:44:11;;;;;;;;;;;17.70;72.00;;;16.96;67.21;95766.16;4080156;34;19996;-88
2022/05/29 12:47:04;;;;;;;;;;;17.70;72.00;;;16.97;67.09;95751.19;4102127;34;19915;-88
2022/05/29 12:50:06;;;;;;;;;;;17.70;72.00;;;16.98;67.04;95747.25;4080225;34;20014;-87
2022/05/29 12:57:22;;;;;;;;;;;17.80;71.90;;;16.99;67.07;95757.19;4080264;34;20081;-89
2022/05/29 13:00:29;;;;;;;;;;;17.80;71.90;;;16.99;67.16;95741.41;4092137;34;20083;-88